createdAt,value
2017-09-05T00:02:04.806Z,3.97
2017-09-05T00:04:33.159Z,3.40
2017-09-05T00:07:01.479Z,2.90
2017-09-05T00:09:29.827Z,2.90
2017-09-05T00:11:59.114Z,2.70
2017-09-05T00:14:35.871Z,3.23
2017-09-05T00:17:04.893Z,3.10
2017-09-05T00:22:32.698Z,3.77
2017-09-05T00:25:01.049Z,3.47
2017-09-05T00:27:29.365Z,3.17
2017-09-05T00:29:57.680Z,4.30
2017-09-05T00:32:26.023Z,3.50
2017-09-05T00:34:54.338Z,2.40
2017-09-05T00:37:22.659Z,4.30
2017-09-05T00:39:50.998Z,4.10
2017-09-05T00:42:19.317Z,3.80
2017-09-05T00:44:47.650Z,2.87
2017-09-05T00:47:15.966Z,3.00
2017-09-05T00:49:44.278Z,3.30
2017-09-05T00:52:12.625Z,3.30
2017-09-05T00:54:40.947Z,2.93
2017-09-05T00:57:09.268Z,2.50
2017-09-05T00:59:37.615Z,3.60
2017-09-05T01:02:05.944Z,3.20
2017-09-05T01:04:34.251Z,3.90
2017-09-05T01:07:02.591Z,3.73
2017-09-05T01:09:30.911Z,2.70
2017-09-05T01:11:59.259Z,3.00
2017-09-05T01:14:27.575Z,3.90
2017-09-05T01:16:55.935Z,3.53
2017-09-05T01:19:24.270Z,3.40
2017-09-05T01:21:52.588Z,3.67
2017-09-05T01:24:20.930Z,3.43
2017-09-05T01:26:49.246Z,3.33
2017-09-05T01:29:17.566Z,3.30
2017-09-05T01:31:45.909Z,3.50
2017-09-05T01:34:14.226Z,3.87
2017-09-05T01:36:42.554Z,3.50
2017-09-05T01:39:10.889Z,2.80
2017-09-05T01:41:39.205Z,2.60
2017-09-05T01:44:07.539Z,3.67
2017-09-05T01:46:35.880Z,3.10
2017-09-05T01:49:04.190Z,2.93
2017-09-05T01:51:32.539Z,2.60
2017-09-05T01:54:00.854Z,3.20
2017-09-05T01:56:29.203Z,3.00
2017-09-05T01:58:57.514Z,3.27
2017-09-05T02:01:25.858Z,2.90
2017-09-05T02:03:54.185Z,2.60
2017-09-05T02:06:22.498Z,3.37
2017-09-05T02:08:50.839Z,2.63
2017-09-05T02:11:19.154Z,2.80
2017-09-05T02:13:47.471Z,2.73
2017-09-05T02:16:15.814Z,2.83
2017-09-05T02:18:44.134Z,2.70
2017-09-05T02:21:12.470Z,3.57
2017-09-05T02:23:40.788Z,3.00
2017-09-05T02:26:09.134Z,3.03
2017-09-05T02:28:37.451Z,3.03
2017-09-05T02:31:05.759Z,2.40
2017-09-05T02:33:34.103Z,2.90
2017-09-05T02:36:02.418Z,2.90
2017-09-05T02:38:30.745Z,2.83
2017-09-05T02:40:59.086Z,2.87
2017-09-05T02:43:27.425Z,2.77
2017-09-05T02:45:55.743Z,2.90
2017-09-05T02:48:24.084Z,3.10
2017-09-05T02:50:52.398Z,2.43
2017-09-05T02:53:20.752Z,2.50
2017-09-05T02:55:49.079Z,2.43
2017-09-05T02:58:17.396Z,2.33
2017-09-05T03:00:45.734Z,3.17
2017-09-05T03:03:14.054Z,2.90
2017-09-05T03:05:42.402Z,2.60
2017-09-05T03:08:10.727Z,3.10
2017-09-05T03:10:39.043Z,2.80
2017-09-05T03:13:07.390Z,3.07
2017-09-05T03:15:35.710Z,2.17
2017-09-05T03:18:04.025Z,3.37
2017-09-05T03:20:32.376Z,3.40
2017-09-05T03:23:00.690Z,2.40
2017-09-05T03:25:29.034Z,3.00
2017-09-05T03:27:57.359Z,2.50
2017-09-05T03:30:25.675Z,2.87
2017-09-05T03:32:54.015Z,3.47
2017-09-05T03:35:22.342Z,4.07
2017-09-05T03:37:50.682Z,3.10
2017-09-05T03:40:18.999Z,2.87
2017-09-05T03:42:47.324Z,3.17
2017-09-05T03:45:15.658Z,2.63
2017-09-05T03:47:43.980Z,3.57
2017-09-05T03:50:12.329Z,3.57
2017-09-05T03:52:40.643Z,3.50
2017-09-05T03:55:08.988Z,3.70
2017-09-05T03:57:37.299Z,3.30
2017-09-05T04:00:05.617Z,3.97
2017-09-05T04:02:33.962Z,3.30
2017-09-05T04:05:02.282Z,2.97
2017-09-05T04:07:30.601Z,3.80
2017-09-05T04:09:58.950Z,3.20
2017-09-05T04:12:27.258Z,4.37
2017-09-05T04:14:55.576Z,3.30
2017-09-05T04:17:23.915Z,3.77
2017-09-05T04:19:52.231Z,4.07
2017-09-05T04:22:20.546Z,3.40
2017-09-05T04:24:48.890Z,4.33
2017-09-05T04:27:17.212Z,4.00
2017-09-05T04:29:45.562Z,4.70
2017-09-05T04:32:13.879Z,4.00
2017-09-05T04:34:42.199Z,5.30
2017-09-05T04:37:10.539Z,3.70
2017-09-05T04:39:38.856Z,4.20
2017-09-05T04:42:07.201Z,4.07
2017-09-05T04:44:35.522Z,3.80
2017-09-05T04:47:03.856Z,4.40
2017-09-05T04:49:32.177Z,4.00
2017-09-05T04:52:00.523Z,4.33
2017-09-05T04:54:28.838Z,4.73
2017-09-05T04:56:57.151Z,4.40
2017-09-05T04:59:25.499Z,5.40
2017-09-05T05:01:53.811Z,4.17
2017-09-05T05:04:22.127Z,4.33
2017-09-05T05:06:51.231Z,4.40
2017-09-05T05:09:19.555Z,3.83
2017-09-05T05:11:47.886Z,4.23
2017-09-05T05:14:16.198Z,4.30
2017-09-05T05:16:44.559Z,3.90
2017-09-05T05:19:12.879Z,4.30
2017-09-05T05:21:41.244Z,3.90
2017-09-05T05:24:09.562Z,4.20
2017-09-05T05:26:37.885Z,4.30
2017-09-05T05:29:06.226Z,4.37
2017-09-05T05:31:34.551Z,4.37
2017-09-05T05:34:02.867Z,4.93
2017-09-05T05:36:31.208Z,4.50
2017-09-05T05:38:59.524Z,4.57
2017-09-05T05:41:27.875Z,3.93
2017-09-05T05:43:56.193Z,5.07
2017-09-05T05:46:24.542Z,4.30
2017-09-05T05:48:52.930Z,5.40
2017-09-05T05:51:21.329Z,5.00
2017-09-05T05:53:49.904Z,4.53
2017-09-05T05:56:18.222Z,4.43
2017-09-05T05:58:46.771Z,4.30
2017-09-05T06:01:15.424Z,4.93
2017-09-05T06:03:43.738Z,4.50
2017-09-05T06:06:12.058Z,4.33
2017-09-05T06:08:40.403Z,4.40
2017-09-05T06:11:08.714Z,4.50
2017-09-05T06:13:37.026Z,4.53
2017-09-05T06:16:05.382Z,4.67
2017-09-05T06:18:33.707Z,5.00
2017-09-05T06:21:02.063Z,5.37
2017-09-05T06:23:30.378Z,4.37
2017-09-05T06:25:58.694Z,4.80
2017-09-05T06:28:27.039Z,5.83
2017-09-05T06:30:55.354Z,4.93
2017-09-05T06:33:23.670Z,4.57
2017-09-05T06:35:52.014Z,5.50
2017-09-05T06:38:20.326Z,5.70
2017-09-05T06:40:48.638Z,4.33
2017-09-05T06:43:16.982Z,5.47
2017-09-05T06:45:45.513Z,5.57
2017-09-05T06:48:14.039Z,5.13
2017-09-05T06:50:42.373Z,4.40
2017-09-05T06:53:10.685Z,5.40
2017-09-05T06:55:39.023Z,5.57
2017-09-05T06:58:07.336Z,5.10
2017-09-05T07:00:35.674Z,5.13
2017-09-05T07:03:03.993Z,5.90
2017-09-05T07:05:32.307Z,6.50
2017-09-05T07:08:00.649Z,6.70
2017-09-05T07:10:28.963Z,6.87
2017-09-05T07:12:57.280Z,6.80
2017-09-05T07:15:25.621Z,6.50
2017-09-05T07:17:53.934Z,6.70
2017-09-05T07:20:22.270Z,6.63
2017-09-05T07:22:50.586Z,5.50
2017-09-05T07:25:18.902Z,6.63
2017-09-05T07:27:47.241Z,6.07
2017-09-05T07:30:15.558Z,4.90
2017-09-05T07:32:43.918Z,5.57
2017-09-05T07:35:12.236Z,5.50
2017-09-05T07:37:40.549Z,5.37
2017-09-05T07:40:08.894Z,4.97
2017-09-05T07:42:37.298Z,4.20
2017-09-05T07:45:05.618Z,4.60
2017-09-05T07:47:33.972Z,5.07
2017-09-05T07:50:02.288Z,6.00
2017-09-05T07:52:30.637Z,4.63
2017-09-05T07:54:58.949Z,5.20
2017-09-05T07:57:27.275Z,4.87
2017-09-05T07:59:55.630Z,5.77
2017-09-05T08:02:23.944Z,5.17
2017-09-05T08:04:52.319Z,5.30
2017-09-05T08:07:21.020Z,5.00
2017-09-05T08:09:49.334Z,5.57
2017-09-05T08:12:17.678Z,5.17
2017-09-05T08:14:45.994Z,5.93
2017-09-05T08:17:14.315Z,6.73
2017-09-05T08:19:42.658Z,4.87
2017-09-05T08:22:10.971Z,5.13
2017-09-05T08:24:39.318Z,5.40
2017-09-05T08:27:07.634Z,4.83
2017-09-05T08:29:35.973Z,4.93
2017-09-05T08:32:04.296Z,4.83
2017-09-05T08:34:32.650Z,4.73
2017-09-05T08:37:00.962Z,5.43
2017-09-05T08:39:29.278Z,4.87
2017-09-05T08:41:57.641Z,4.83
2017-09-05T08:44:25.959Z,5.10
2017-09-05T08:46:54.303Z,5.57
2017-09-05T08:49:22.634Z,4.90
2017-09-05T08:51:50.957Z,6.60
2017-09-05T08:54:19.299Z,5.80
2017-09-05T08:56:47.623Z,5.83
2017-09-05T08:59:15.962Z,5.83
2017-09-05T09:01:44.291Z,5.83
2017-09-05T09:04:12.635Z,7.30
2017-09-05T09:06:40.978Z,4.93
2017-09-05T09:09:09.306Z,4.70
2017-09-05T09:11:37.621Z,5.70
2017-09-05T09:14:05.974Z,5.47
2017-09-05T09:16:34.294Z,4.50
2017-09-05T09:19:02.635Z,4.83
2017-09-05T09:21:30.955Z,4.23
2017-09-05T09:23:59.291Z,4.90
2017-09-05T09:26:27.642Z,5.47
2017-09-05T09:28:55.965Z,5.60
2017-09-05T09:31:24.274Z,5.40
2017-09-05T09:33:52.627Z,5.03
2017-09-05T09:36:20.954Z,5.40
2017-09-05T09:38:49.294Z,5.43
2017-09-05T09:41:17.615Z,5.40
2017-09-05T09:43:45.931Z,5.00
2017-09-05T09:46:14.279Z,5.40
2017-09-05T09:48:42.642Z,5.00
2017-09-05T09:51:10.961Z,5.00
2017-09-05T09:53:39.306Z,5.80
2017-09-05T09:56:07.634Z,5.17
2017-09-05T09:58:35.951Z,4.83
2017-09-05T10:01:04.294Z,5.70
2017-09-05T10:03:32.627Z,5.27
2017-09-05T10:06:00.981Z,5.13
2017-09-05T10:08:29.298Z,5.30
2017-09-05T10:10:57.626Z,4.53
2017-09-05T10:13:25.981Z,4.60
2017-09-05T10:15:54.299Z,4.90
2017-09-05T10:18:22.614Z,4.63
2017-09-05T10:20:50.946Z,5.13
2017-09-05T10:23:19.269Z,4.80
2017-09-05T10:25:47.602Z,5.13
2017-09-05T10:28:15.921Z,4.53
2017-09-05T10:30:44.270Z,4.77
2017-09-05T10:33:12.587Z,4.30
2017-09-05T10:35:40.923Z,4.70
2017-09-05T10:38:09.278Z,4.00
2017-09-05T10:40:37.600Z,4.63
2017-09-05T10:43:05.915Z,4.47
2017-09-05T10:45:34.259Z,4.00
2017-09-05T10:48:02.653Z,4.20
2017-09-05T10:50:31.001Z,3.57
2017-09-05T10:52:59.332Z,3.97
2017-09-05T10:55:27.651Z,3.40
2017-09-05T10:57:55.999Z,3.97
2017-09-05T11:00:24.326Z,3.60
2017-09-05T11:02:52.646Z,3.10
2017-09-05T11:05:20.998Z,2.80
2017-09-05T11:07:49.314Z,3.20
2017-09-05T11:10:17.631Z,3.07
2017-09-05T11:12:45.970Z,2.80
2017-09-05T11:15:14.304Z,1.93
2017-09-05T11:17:42.651Z,3.07
2017-09-05T11:20:10.966Z,4.23
2017-09-05T11:22:39.284Z,2.87
2017-09-05T11:25:07.628Z,2.50
2017-09-05T11:27:35.949Z,2.83
2017-09-05T11:30:04.267Z,3.40
2017-09-05T11:32:32.610Z,2.70
2017-09-05T11:35:00.922Z,2.77
2017-09-05T11:37:29.238Z,3.57
2017-09-05T11:39:57.580Z,3.10
2017-09-05T11:42:25.898Z,2.47
2017-09-05T11:44:54.218Z,2.60
2017-09-05T11:47:22.558Z,2.10
2017-09-05T11:49:50.874Z,2.23
2017-09-05T11:52:19.210Z,2.20
2017-09-05T11:54:47.525Z,2.00
2017-09-05T11:57:15.865Z,1.77
2017-09-05T11:59:44.180Z,2.30
2017-09-05T12:02:12.496Z,2.10
2017-09-05T12:04:40.834Z,1.93
2017-09-05T12:07:09.160Z,2.30
2017-09-05T12:09:37.483Z,1.90
2017-09-05T12:12:05.822Z,1.90
2017-09-05T12:14:34.135Z,1.43
2017-09-05T12:17:02.463Z,2.30
2017-09-05T12:19:30.813Z,1.50
2017-09-05T12:21:59.126Z,1.90
2017-09-05T12:24:27.473Z,1.37
2017-09-05T12:26:55.788Z,1.63
2017-09-05T12:29:24.106Z,1.83
2017-09-05T12:31:52.445Z,1.53
2017-09-05T12:34:20.758Z,1.67
2017-09-05T12:36:49.080Z,1.30
2017-09-05T12:39:17.436Z,2.00
2017-09-05T12:41:45.766Z,1.20
2017-09-05T12:44:14.084Z,1.90
2017-09-05T12:46:42.458Z,1.40
2017-09-05T12:49:10.770Z,1.50
2017-09-05T12:51:39.082Z,1.37
2017-09-05T12:54:07.430Z,1.40
2017-09-05T12:56:35.750Z,1.80
2017-09-05T12:59:04.063Z,1.80
2017-09-05T13:01:32.406Z,1.80
2017-09-05T13:04:00.732Z,1.53
2017-09-05T13:06:29.046Z,1.57
2017-09-05T13:08:57.386Z,0.90
2017-09-05T13:11:25.701Z,1.27
2017-09-05T13:13:54.038Z,1.40
2017-09-05T13:16:22.351Z,1.50
2017-09-05T13:18:50.680Z,1.60
2017-09-05T13:21:19.019Z,1.67
2017-09-05T13:23:47.333Z,1.40
2017-09-05T13:26:15.653Z,1.50
2017-09-05T13:28:43.997Z,1.30
2017-09-05T13:31:12.315Z,1.40
2017-09-05T13:33:40.672Z,1.77
2017-09-05T13:36:08.997Z,1.50
2017-09-05T13:38:37.343Z,1.23
2017-09-05T13:41:05.672Z,1.50
2017-09-05T13:43:33.996Z,1.87
2017-09-05T13:46:02.363Z,1.80
2017-09-05T13:48:30.685Z,3.97
2017-09-05T13:50:59.002Z,1.40
2017-09-05T13:53:27.345Z,1.53
2017-09-05T13:55:55.672Z,1.40
2017-09-05T13:58:24.018Z,1.13
2017-09-05T14:00:52.333Z,1.10
2017-09-05T14:03:20.662Z,1.60
2017-09-05T14:05:49.002Z,1.70
2017-09-05T14:08:17.318Z,1.47
2017-09-05T14:10:45.669Z,1.33
2017-09-05T14:13:13.982Z,1.50
2017-09-05T14:15:42.322Z,1.50
2017-09-05T14:18:10.642Z,1.83
2017-09-05T14:20:38.966Z,1.37
2017-09-05T14:23:07.310Z,1.37
2017-09-05T14:25:35.639Z,1.60
2017-09-05T14:28:03.966Z,1.50
2017-09-05T14:30:32.312Z,1.50
2017-09-05T14:33:00.637Z,1.80
2017-09-05T14:35:28.979Z,1.30
2017-09-05T14:37:57.300Z,1.20
2017-09-05T14:40:25.615Z,1.37
2017-09-05T14:42:53.958Z,0.90
2017-09-05T14:45:22.278Z,1.93
2017-09-05T14:47:50.625Z,1.00
2017-09-05T14:50:18.947Z,1.30
2017-09-05T14:52:47.295Z,1.83
2017-09-05T14:55:15.618Z,1.77
2017-09-05T14:57:43.941Z,1.67
2017-09-05T15:00:12.281Z,1.60
2017-09-05T15:02:40.606Z,1.63
2017-09-05T15:05:08.922Z,1.50
2017-09-05T15:07:37.272Z,1.77
2017-09-05T15:10:05.591Z,1.90
2017-09-05T15:12:33.906Z,2.00
2017-09-05T15:15:02.247Z,2.27
2017-09-05T15:17:30.567Z,2.03
2017-09-05T15:19:58.901Z,2.37
2017-09-05T15:22:27.262Z,2.17
2017-09-05T15:24:55.590Z,2.03
2017-09-05T15:27:23.937Z,2.37
2017-09-05T15:29:52.267Z,1.97
2017-09-05T15:32:20.592Z,2.40
2017-09-05T15:34:48.944Z,2.80
2017-09-05T15:37:17.270Z,2.67
2017-09-05T15:39:45.613Z,2.33
2017-09-05T15:42:13.927Z,2.20
2017-09-05T15:44:42.280Z,2.00
2017-09-05T15:47:10.608Z,1.80
2017-09-05T15:49:38.936Z,2.00
2017-09-05T15:52:07.282Z,1.63
2017-09-05T15:54:35.616Z,1.60
2017-09-05T15:57:03.962Z,1.40
2017-09-05T15:59:32.279Z,1.50
2017-09-05T16:02:00.603Z,1.50
2017-09-05T16:04:28.950Z,1.37
2017-09-05T16:06:57.276Z,1.57
2017-09-05T16:09:25.623Z,2.00
2017-09-05T16:11:53.950Z,1.80
2017-09-05T16:14:22.259Z,2.17
2017-09-05T16:16:50.600Z,2.30
2017-09-05T16:19:18.919Z,1.87
2017-09-05T16:21:47.238Z,1.53
2017-09-05T16:24:15.636Z,1.70
2017-09-05T16:26:44.227Z,1.30
2017-09-05T16:29:12.570Z,1.57
2017-09-05T16:31:40.890Z,1.40
2017-09-05T16:34:09.250Z,1.43
2017-09-05T16:36:37.571Z,2.10
2017-09-05T16:39:05.900Z,2.07
2017-09-05T16:41:34.249Z,1.80
2017-09-05T16:44:02.574Z,1.47
2017-09-05T16:46:30.900Z,1.40
2017-09-05T16:48:59.249Z,1.43
2017-09-05T16:51:27.569Z,1.40
2017-09-05T16:53:55.887Z,1.80
2017-09-05T16:56:24.236Z,1.50
2017-09-05T16:58:52.555Z,1.50
2017-09-05T17:01:20.910Z,1.40
2017-09-05T17:03:49.232Z,1.60
2017-09-05T17:06:17.546Z,1.20
2017-09-05T17:08:45.900Z,2.30
2017-09-05T17:11:14.222Z,2.03
2017-09-05T17:13:42.576Z,1.90
2017-09-05T17:16:10.901Z,1.67
2017-09-05T17:18:39.243Z,4.20
2017-09-05T17:21:07.569Z,2.60
2017-09-05T17:23:35.893Z,3.63
2017-09-05T17:26:04.241Z,3.70
2017-09-05T17:28:32.586Z,2.20
2017-09-05T17:31:00.914Z,1.77
2017-09-05T17:33:29.234Z,1.80
2017-09-05T17:35:57.602Z,2.23
2017-09-05T17:38:25.915Z,1.47
2017-09-05T17:40:54.230Z,1.30
2017-09-05T17:43:22.605Z,1.77
2017-09-05T17:45:50.922Z,1.80
2017-09-05T17:48:19.255Z,2.00
2017-09-05T17:50:47.610Z,2.00
2017-09-05T17:53:15.929Z,1.47
2017-09-05T17:55:44.309Z,1.77
2017-09-05T17:58:12.654Z,1.33
2017-09-05T18:00:40.970Z,1.33
2017-09-05T18:03:09.311Z,1.57
2017-09-05T18:05:37.624Z,1.80
2017-09-05T18:08:05.944Z,1.57
2017-09-05T18:10:34.293Z,2.17
2017-09-05T18:13:02.619Z,1.57
2017-09-05T18:15:30.972Z,1.50
2017-09-05T18:17:59.286Z,1.40
2017-09-05T18:20:27.619Z,1.50
2017-09-05T18:22:55.967Z,1.50
2017-09-05T18:25:24.286Z,1.63
2017-09-05T18:27:52.610Z,1.50
2017-09-05T18:30:20.950Z,1.23
2017-09-05T18:32:49.267Z,1.20
2017-09-05T18:35:17.612Z,1.40
2017-09-05T18:37:45.935Z,1.53
2017-09-05T18:40:14.258Z,1.60
2017-09-05T18:42:42.607Z,1.67
2017-09-05T18:45:10.929Z,1.37
2017-09-05T18:47:39.278Z,1.10
2017-09-05T18:50:07.608Z,1.30
2017-09-05T18:52:35.958Z,1.10
2017-09-05T18:55:04.285Z,1.60
2017-09-05T18:57:32.634Z,1.50
2017-09-05T19:00:00.982Z,1.80
2017-09-05T19:02:29.300Z,1.10
2017-09-05T19:04:57.642Z,1.40
2017-09-05T19:07:25.969Z,0.90
2017-09-05T19:09:54.327Z,1.40
2017-09-05T19:12:22.648Z,1.40
2017-09-05T19:14:50.975Z,1.60
2017-09-05T19:17:19.336Z,1.80
2017-09-05T19:19:47.658Z,1.47
2017-09-05T19:22:15.996Z,1.60
2017-09-05T19:24:44.346Z,1.67
2017-09-05T19:27:12.672Z,1.50
2017-09-05T19:29:40.994Z,1.50
2017-09-05T19:32:09.344Z,1.50
2017-09-05T19:34:37.668Z,1.40
2017-09-05T19:37:05.993Z,1.13
2017-09-05T19:39:34.360Z,1.30
2017-09-05T19:42:02.682Z,1.40
2017-09-05T19:44:31.027Z,1.30
2017-09-05T19:46:59.351Z,1.40
2017-09-05T19:49:27.744Z,1.70
2017-09-05T19:51:56.089Z,1.43
2017-09-05T19:54:24.436Z,1.10
2017-09-05T19:56:52.762Z,1.40
2017-09-05T19:59:21.082Z,1.43
2017-09-05T20:01:49.442Z,1.40
2017-09-05T20:04:17.767Z,1.10
2017-09-05T20:06:46.095Z,1.20
2017-09-05T20:09:14.523Z,1.33
2017-09-05T20:11:42.839Z,1.13
2017-09-05T20:14:11.193Z,1.93
2017-09-05T20:16:39.516Z,1.43
2017-09-05T20:19:07.846Z,1.57
2017-09-05T20:21:36.189Z,1.30
2017-09-05T20:24:04.505Z,1.50
2017-09-05T20:26:32.850Z,1.63
2017-09-05T20:29:01.162Z,1.40
2017-09-05T20:31:29.471Z,1.37
2017-09-05T20:33:58.329Z,1.23
2017-09-05T20:36:26.922Z,1.30
2017-09-05T20:38:55.762Z,1.10
2017-09-05T20:41:25.025Z,1.27
2017-09-05T20:43:54.056Z,1.60
2017-09-05T20:46:22.560Z,1.50
2017-09-05T20:48:50.894Z,1.30
2017-09-05T20:51:19.224Z,1.40
2017-09-05T20:53:47.571Z,1.43
2017-09-05T20:56:15.894Z,1.70
2017-09-05T20:58:44.219Z,1.43
2017-09-05T21:01:12.579Z,1.17
2017-09-05T21:03:41.010Z,1.63
2017-09-05T21:06:09.352Z,1.50
2017-09-05T21:08:37.707Z,1.13
2017-09-05T21:11:06.037Z,1.80
2017-09-05T21:13:34.364Z,1.60
2017-09-05T21:16:02.707Z,1.53
2017-09-05T21:18:31.034Z,1.53
2017-09-05T21:20:59.380Z,1.50
2017-09-05T21:23:27.694Z,1.40
2017-09-05T21:25:56.009Z,2.00
2017-09-05T21:28:24.355Z,1.50
2017-09-05T21:30:52.682Z,1.47
2017-09-05T21:33:21.019Z,1.53
2017-09-05T21:35:49.365Z,1.73
2017-09-05T21:38:17.701Z,3.60
2017-09-05T21:40:46.030Z,2.00
2017-09-05T21:43:14.370Z,2.57
2017-09-05T21:45:42.694Z,1.80
2017-09-05T21:48:11.018Z,1.37
2017-09-05T21:50:39.367Z,1.80
2017-09-05T21:53:07.683Z,1.40
2017-09-05T21:55:36.002Z,1.57
2017-09-05T21:58:04.348Z,1.70
2017-09-05T22:00:32.675Z,1.83
2017-09-05T22:03:00.994Z,1.40
2017-09-05T22:05:29.346Z,1.37
2017-09-05T22:07:57.679Z,1.90
2017-09-05T22:10:25.999Z,1.50
2017-09-05T22:12:54.360Z,1.60
2017-09-05T22:15:28.135Z,1.60
2017-09-05T22:17:56.499Z,1.40
2017-09-05T22:20:30.303Z,1.67
2017-09-05T22:22:59.306Z,1.60
2017-09-05T22:25:33.187Z,1.63
2017-09-05T22:28:06.995Z,1.50
2017-09-05T22:30:35.310Z,1.47
2017-09-05T22:33:03.882Z,1.70
2017-09-05T22:35:32.235Z,1.60
2017-09-05T22:38:00.550Z,1.70
2017-09-05T22:40:28.870Z,1.70
2017-09-05T22:42:57.226Z,2.00
2017-09-05T22:45:25.552Z,1.77
2017-09-05T22:47:53.883Z,1.50
2017-09-05T22:50:22.227Z,1.50
2017-09-05T22:52:50.561Z,1.93
2017-09-05T22:55:18.880Z,2.20
2017-09-05T22:57:47.239Z,2.40
2017-09-05T23:00:15.568Z,2.87
2017-09-05T23:02:43.894Z,2.70
2017-09-05T23:05:12.243Z,2.70
2017-09-05T23:07:40.569Z,3.00
2017-09-05T23:10:08.906Z,2.40
2017-09-05T23:12:37.251Z,2.37
2017-09-05T23:15:05.571Z,2.50
2017-09-05T23:17:33.890Z,2.53
2017-09-05T23:20:02.271Z,4.70
2017-09-05T23:22:30.589Z,4.10
2017-09-05T23:24:58.915Z,2.70
2017-09-05T23:27:27.263Z,2.23
2017-09-05T23:29:55.587Z,2.60
2017-09-05T23:32:23.908Z,1.80
2017-09-05T23:34:52.266Z,2.30
2017-09-05T23:37:20.586Z,2.37
2017-09-05T23:39:48.926Z,2.87
2017-09-05T23:42:17.279Z,2.57
2017-09-05T23:44:45.608Z,2.97
2017-09-05T23:47:13.929Z,2.80
2017-09-05T23:49:42.282Z,2.53
2017-09-05T23:52:10.603Z,2.00
2017-09-05T23:54:38.927Z,1.90
2017-09-05T23:57:07.283Z,2.00
2017-09-05T23:59:35.598Z,1.73
